SARF/FMA METAR and TAF weather

Enter ICAO airport designator
Station Type Date Time Source
SARF METAR 2020/07/10 00:00 UTC NOAA

SARF 100000Z 07003KT CAVOK 09/09 Q1020


Station Type Date Time Source
SARF Decoded METAR 2020/07/10 00:00 UTC NOAA

Formosa Aerodrome, Argentina (SARF) 26-12S 058-14W 60M
Jul 09, 2020 - 08:00 PM EDT / 2020.07.10 0000 UTC
Wind: from the ENE (070 degrees) at 3 MPH (3 KT):0
Visibility: greater than 7 mile(s):0
Temperature: 48 F (9 C)
Dew Point: 48 F (9 C)
Relative Humidity: 100%
Pressure (altimeter): 30.12 in. Hg (1020 hPa)
ob: SARF 100000Z 07003KT CAVOK 09/09 Q1020
cycle: 0

Station Type Date Time Source
SARF TAF 2020/07/10 00:00 UTC NOAA

TAF SARF 092300Z 1000/1024 07005KT CAVOK TX20/1018Z TN05/1011Z
BECMG 1005/1006 0800 FG
BECMG 1010/1012 9999 SCT030

Example: see airport list